Time;durP1;ratioP1;P1;durP2;ratioP2;P2;SDS_P1;SDS_P2;PMS_P1;PMS_P2;Temp;Humidity;BMP_temperature;BMP_pressure;BME280_temperature;BME280_humidity;BME280_pressure;Samples;Min_cycle;Max_cycle;Signal;HPM_P1;HPM_P2
2022/03/08 00:01:16;;;;;;;9.07;5.73;;;1.20;99.90;;;;;;4975649;28;20038;-85
2022/03/08 00:03:42;;;;;;;10.10;5.43;;;1.20;99.90;;;;;;5003766;28;20039;-86
2022/03/08 00:06:07;;;;;;;7.50;5.60;;;1.20;99.90;;;;;;4999838;28;20049;-85
2022/03/08 00:08:34;;;;;;;9.23;5.60;;;1.20;99.90;;;;;;5009580;28;20166;-85
2022/03/08 00:11:00;;;;;;;10.60;5.90;;;1.30;99.90;;;;;;4977786;28;20046;-85
2022/03/08 00:13:25;;;;;;;12.73;5.73;;;1.20;99.90;;;;;;4977754;28;20048;-86
2022/03/08 00:15:51;;;;;;;9.07;6.00;;;1.20;99.90;;;;;;4987853;28;20030;-85
2022/03/08 00:18:17;;;;;;;8.67;5.43;;;1.20;99.90;;;;;;5005310;28;20037;-85
2022/03/08 00:20:44;;;;;;;10.57;5.47;;;1.10;99.90;;;;;;5003695;28;20034;-85
2022/03/08 00:23:09;;;;;;;9.20;6.10;;;1.10;99.90;;;;;;5007283;28;20038;-85
2022/03/08 00:25:35;;;;;;;9.37;5.83;;;1.10;99.90;;;;;;5013934;28;20042;-85
2022/03/08 00:28:01;;;;;;;8.37;5.83;;;1.10;99.90;;;;;;4999724;28;20065;-85
2022/03/08 00:30:27;;;;;;;9.60;5.93;;;1.10;99.90;;;;;;4990473;28;20077;-84
2022/03/08 00:32:53;;;;;;;8.13;5.67;;;1.10;99.90;;;;;;4994488;28;20034;-85
2022/03/08 00:35:20;;;;;;;9.20;5.67;;;1.00;99.90;;;;;;4996663;28;20030;-86
2022/03/08 00:37:49;;;;;;;8.35;5.70;;;0.90;99.90;;;;;;5004074;28;20546;-85
2022/03/08 00:40:16;;;;;;;9.07;5.80;;;0.90;99.90;;;;;;4985475;28;20038;-85
2022/03/08 00:42:42;;;;;;;9.60;6.53;;;0.90;99.90;;;;;;4973994;28;20097;-85
2022/03/08 00:45:09;;;;;;;9.87;6.10;;;0.90;99.90;;;;;;4999475;28;20038;-85
2022/03/08 00:47:36;;;;;;;9.07;6.10;;;0.80;99.90;;;;;;5004809;28;20125;-85
2022/03/08 00:50:03;;;;;;;8.90;6.23;;;0.80;99.90;;;;;;5016842;28;20038;-85
2022/03/08 00:52:29;;;;;;;10.60;6.23;;;0.90;99.90;;;;;;4997399;28;20511;-84
2022/03/08 00:54:55;;;;;;;10.73;6.30;;;0.70;99.90;;;;;;4999827;28;20069;-83
2022/03/08 00:57:20;;;;;;;10.10;6.40;;;0.60;99.90;;;;;;4974141;28;20352;-85
2022/03/08 00:59:46;;;;;;;10.57;6.37;;;0.60;99.90;;;;;;4999817;28;20073;-85
2022/03/08 01:02:12;;;;;;;9.83;6.43;;;0.50;99.90;;;;;;4984598;28;20066;-85
2022/03/08 01:04:37;;;;;;;9.17;6.13;;;0.40;99.90;;;;;;5021433;28;20046;-86
2022/03/08 01:07:05;;;;;;;9.97;6.50;;;0.40;99.90;;;;;;4993819;28;20047;-85
2022/03/08 01:09:31;;;;;;;9.30;6.53;;;0.30;99.90;;;;;;4997107;28;20383;-85
2022/03/08 01:11:56;;;;;;;11.23;6.80;;;0.30;99.90;;;;;;4998120;28;20050;-84
2022/03/08 01:14:22;;;;;;;10.17;6.93;;;0.30;99.90;;;;;;4994141;28;20129;-86
2022/03/08 01:16:48;;;;;;;14.27;6.90;;;0.20;99.90;;;;;;5001348;28;20058;-85
2022/03/08 01:19:13;;;;;;;10.50;6.70;;;0.20;99.90;;;;;;5002012;28;20083;-86
2022/03/08 01:21:39;;;;;;;11.20;7.27;;;0.20;99.90;;;;;;4987736;28;20038;-86
2022/03/08 01:24:05;;;;;;;10.37;6.37;;;0.30;99.90;;;;;;5012569;28;20027;-85
2022/03/08 01:26:31;;;;;;;12.17;6.90;;;0.20;99.90;;;;;;5004354;28;20042;-86
2022/03/08 01:28:57;;;;;;;9.47;6.40;;;0.20;99.90;;;;;;4978909;28;20045;-85
2022/03/08 01:31:23;;;;;;;10.07;6.63;;;0.20;99.90;;;;;;5007721;28;20087;-86
2022/03/08 01:33:54;;;;;;;10.17;6.50;;;0.30;99.90;;;;;;5012608;28;20034;-86
2022/03/08 01:36:20;;;;;;;10.60;6.60;;;0.20;99.90;;;;;;4997704;28;20104;-86
2022/03/08 01:38:46;;;;;;;10.73;6.67;;;0.10;99.90;;;;;;4976791;28;20400;-86
2022/03/08 01:41:11;;;;;;;11.20;6.73;;;0.20;99.90;;;;;;4993798;28;20029;-86
2022/03/08 01:43:37;;;;;;;10.20;6.37;;;0.10;99.90;;;;;;4985227;28;20503;-85
2022/03/08 01:46:02;;;;;;;10.20;6.33;;;0.10;99.90;;;;;;4979069;28;20485;-86
2022/03/08 01:48:28;;;;;;;10.03;6.23;;;0.00;99.90;;;;;;5003187;28;20589;-86
2022/03/08 01:50:54;;;;;;;11.13;6.70;;;0.00;99.90;;;;;;5009460;28;20054;-85
2022/03/08 01:53:20;;;;;;;10.47;6.60;;;-0.10;99.90;;;;;;4986161;28;20034;-85
2022/03/08 01:55:46;;;;;;;9.30;6.70;;;-0.10;99.90;;;;;;5007072;28;20416;-84
2022/03/08 01:58:11;;;;;;;9.53;6.07;;;-0.20;99.90;;;;;;5021820;28;20038;-85
2022/03/08 02:00:37;;;;;;;11.73;6.70;;;-0.20;99.90;;;;;;5000083;28;20045;-86
2022/03/08 02:03:03;;;;;;;11.00;6.90;;;-0.20;99.90;;;;;;5004381;28;20524;-86
2022/03/08 02:05:29;;;;;;;9.70;6.50;;;-0.20;99.90;;;;;;4978668;28;20089;-86
2022/03/08 02:07:54;;;;;;;9.03;6.63;;;-0.20;99.90;;;;;;4980529;28;20555;-85
2022/03/08 02:10:21;;;;;;;11.10;7.13;;;-0.20;99.90;;;;;;5005405;28;20057;-86
2022/03/08 02:12:46;;;;;;;10.07;6.77;;;-0.20;99.90;;;;;;4986832;28;20053;-86
2022/03/08 02:15:16;;;;;;;10.17;6.97;;;-0.30;99.90;;;;;;4991896;28;20034;-86
2022/03/08 02:17:43;;;;;;;9.60;7.00;;;-0.30;99.90;;;;;;4995078;28;20037;-86
2022/03/08 02:20:10;;;;;;;10.00;6.67;;;-0.30;99.90;;;;;;5001334;28;20399;-86
2022/03/08 02:22:35;;;;;;;9.87;7.33;;;-0.30;99.90;;;;;;5000137;28;20459;-86
2022/03/08 02:25:02;;;;;;;10.77;7.30;;;-0.30;99.90;;;;;;5002192;28;20121;-86
2022/03/08 02:27:27;;;;;;;12.63;7.60;;;-0.30;99.90;;;;;;4996351;28;20041;-87
2022/03/08 02:29:53;;;;;;;9.47;7.00;;;-0.30;99.90;;;;;;4981937;28;20042;-87
2022/03/08 02:32:19;;;;;;;12.67;7.07;;;-0.40;99.90;;;;;;4998637;28;20042;-86
2022/03/08 02:34:44;;;;;;;10.50;7.60;;;-0.40;99.90;;;;;;4995125;28;20034;-86
2022/03/08 02:37:12;;;;;;;11.07;7.43;;;-0.40;99.90;;;;;;4976004;28;20041;-86
2022/03/08 02:39:38;;;;;;;10.97;7.83;;;-0.40;99.90;;;;;;4994056;28;20070;-87
2022/03/08 02:42:05;;;;;;;10.40;6.80;;;-0.40;99.90;;;;;;5009414;28;20056;-87
2022/03/08 02:44:30;;;;;;;12.13;7.93;;;-0.30;99.90;;;;;;4984656;28;20066;-87
2022/03/08 02:46:56;;;;;;;10.60;7.40;;;-0.30;99.90;;;;;;4976675;28;20485;-87
2022/03/08 02:49:22;;;;;;;10.57;7.60;;;-0.30;99.90;;;;;;4982003;28;20038;-86
2022/03/08 02:51:47;;;;;;;10.87;7.77;;;-0.30;99.90;;;;;;4988957;28;20053;-86
2022/03/08 02:54:13;;;;;;;13.07;7.57;;;-0.30;99.90;;;;;;4987028;28;20041;-85
2022/03/08 02:56:39;;;;;;;11.73;8.03;;;-0.40;99.90;;;;;;4977228;28;20058;-87
2022/03/08 02:59:04;;;;;;;11.77;7.87;;;-0.40;99.90;;;;;;5006483;28;20096;-86
2022/03/08 03:01:30;;;;;;;11.33;7.47;;;-0.40;99.90;;;;;;4993212;28;20038;-86
2022/03/08 03:03:55;;;;;;;12.60;8.17;;;-0.40;99.90;;;;;;4993674;28;20061;-85
2022/03/08 03:06:21;;;;;;;13.60;8.33;;;-0.40;99.90;;;;;;4980489;28;20042;-86
2022/03/08 03:08:47;;;;;;;11.97;8.03;;;-0.40;99.90;;;;;;4988571;28;20065;-87
2022/03/08 03:11:13;;;;;;;12.83;8.43;;;-0.40;99.90;;;;;;5002402;28;20095;-84
2022/03/08 03:13:38;;;;;;;14.77;8.53;;;-0.40;99.90;;;;;;4974793;28;20038;-86
2022/03/08 03:16:04;;;;;;;13.07;8.03;;;-0.40;99.90;;;;;;4980082;28;20357;-86
2022/03/08 03:18:29;;;;;;;12.77;8.40;;;-0.40;99.90;;;;;;5006569;28;20054;-86
2022/03/08 03:20:55;;;;;;;11.73;8.47;;;-0.40;99.90;;;;;;4986338;28;20178;-86
2022/03/08 03:23:20;;;;;;;13.20;8.83;;;-0.40;99.90;;;;;;4984290;28;20124;-86
2022/03/08 03:25:46;;;;;;;12.40;8.57;;;-0.40;99.90;;;;;;5009181;28;20128;-86
2022/03/08 03:28:11;;;;;;;15.17;8.77;;;-0.40;99.90;;;;;;4975919;28;20046;-87
2022/03/08 03:30:37;;;;;;;13.20;8.03;;;-0.40;99.90;;;;;;5010108;28;20060;-86
2022/03/08 03:33:03;;;;;;;12.43;8.77;;;-0.40;99.90;;;;;;5016704;28;20479;-86
2022/03/08 03:35:30;;;;;;;14.07;9.00;;;-0.40;99.90;;;;;;4977241;28;20034;-86
2022/03/08 03:37:55;;;;;;;13.37;9.33;;;-0.40;99.90;;;;;;4998331;28;20038;-86
2022/03/08 03:40:21;;;;;;;12.63;8.93;;;-0.40;99.90;;;;;;4976688;28;20035;-86
2022/03/08 03:42:47;;;;;;;13.40;9.33;;;-0.50;99.90;;;;;;5005764;28;20411;-85
2022/03/08 03:45:13;;;;;;;12.43;8.30;;;-0.50;99.90;;;;;;4991701;28;20132;-87
2022/03/08 03:47:39;;;;;;;12.77;8.10;;;-0.50;99.90;;;;;;5003418;28;20034;-86
2022/03/08 03:50:06;;;;;;;14.17;9.33;;;-0.60;99.90;;;;;;4989296;28;20065;-86
2022/03/08 03:52:32;;;;;;;13.10;9.07;;;-0.60;99.90;;;;;;5011337;28;20046;-86
2022/03/08 03:54:57;;;;;;;14.93;8.37;;;-0.60;99.90;;;;;;4978566;28;20045;-86
2022/03/08 03:57:23;;;;;;;14.60;8.97;;;-0.70;99.90;;;;;;5025264;28;20042;-86
2022/03/08 03:59:49;;;;;;;14.83;8.90;;;-0.70;99.90;;;;;;5003846;28;20041;-87
2022/03/08 04:02:14;;;;;;;13.07;8.83;;;-0.70;99.90;;;;;;4979761;28;20495;-87
2022/03/08 04:04:40;;;;;;;14.97;9.63;;;-0.80;99.90;;;;;;4999905;28;20048;-86
2022/03/08 04:07:05;;;;;;;15.07;9.53;;;-0.80;99.90;;;;;;4994934;28;20088;-85
2022/03/08 04:09:31;;;;;;;14.00;9.17;;;-0.80;99.90;;;;;;5013951;28;20085;-86
2022/03/08 04:11:57;;;;;;;14.20;9.20;;;-0.80;99.90;;;;;;4976883;28;20042;-87
2022/03/08 04:14:22;;;;;;;15.97;9.37;;;-0.90;99.90;;;;;;5001324;28;20041;-86
2022/03/08 04:16:48;;;;;;;15.20;9.13;;;-0.90;99.90;;;;;;4998088;28;20027;-86
2022/03/08 04:19:14;;;;;;;14.27;8.87;;;-0.80;99.90;;;;;;4982319;28;20038;-86
2022/03/08 04:21:39;;;;;;;16.90;9.57;;;-0.80;99.90;;;;;;5001706;28;20034;-87
2022/03/08 04:24:05;;;;;;;15.97;9.20;;;-0.80;99.90;;;;;;4986202;28;20046;-86
2022/03/08 04:26:31;;;;;;;15.87;9.57;;;-0.80;99.90;;;;;;4990356;28;20037;-87
2022/03/08 04:28:56;;;;;;;15.33;9.47;;;-0.80;99.90;;;;;;4987172;28;20038;-87
2022/03/08 04:31:22;;;;;;;15.03;9.20;;;-0.80;99.90;;;;;;4972544;28;20722;-84
2022/03/08 04:33:47;;;;;;;16.20;9.23;;;-0.80;99.90;;;;;;4996108;28;20562;-85
2022/03/08 04:36:13;;;;;;;14.60;9.20;;;-0.80;99.90;;;;;;4999183;28;20501;-86
2022/03/08 04:38:38;;;;;;;15.70;9.33;;;-0.90;99.90;;;;;;4980758;28;20041;-86
2022/03/08 04:41:06;;;;;;;17.40;10.13;;;-0.90;99.90;;;;;;4992764;28;20038;-87
2022/03/08 04:43:32;;;;;;;16.33;9.93;;;-0.90;99.90;;;;;;4994573;28;20092;-87
2022/03/08 04:45:58;;;;;;;15.30;9.63;;;-0.90;99.90;;;;;;4989783;28;20065;-87
2022/03/08 04:48:23;;;;;;;15.03;9.47;;;-0.90;99.90;;;;;;4996047;28;20080;-87
2022/03/08 04:50:49;;;;;;;15.20;9.67;;;-0.80;99.90;;;;;;4991524;28;20038;-86
2022/03/08 04:53:15;;;;;;;14.13;9.67;;;-0.80;99.90;;;;;;4978297;28;20042;-87
2022/03/08 04:55:40;;;;;;;16.17;9.20;;;-0.80;99.90;;;;;;4985075;28;20031;-87
2022/03/08 04:58:06;;;;;;;16.37;9.83;;;-0.80;99.90;;;;;;5009137;28;20523;-87
2022/03/08 05:00:32;;;;;;;15.53;9.80;;;-0.90;99.90;;;;;;5020889;28;20506;-87
2022/03/08 05:02:58;;;;;;;15.77;10.27;;;-0.90;99.90;;;;;;4997181;28;20038;-87
2022/03/08 05:05:24;;;;;;;14.70;9.70;;;-0.90;99.90;;;;;;4992463;28;20046;-86
2022/03/08 05:07:50;;;;;;;16.93;9.67;;;-1.00;99.90;;;;;;4995426;28;20045;-86
2022/03/08 05:10:15;;;;;;;18.13;10.03;;;-1.00;99.90;;;;;;4994803;28;20034;-86
2022/03/08 05:12:41;;;;;;;15.60;10.33;;;-1.10;99.90;;;;;;4979665;28;20034;-87
2022/03/08 05:15:08;;;;;;;15.97;9.77;;;-1.20;99.90;;;;;;4999269;28;20046;-88
2022/03/08 05:17:34;;;;;;;15.73;10.60;;;-1.10;99.90;;;;;;4990999;28;20176;-87
2022/03/08 05:20:00;;;;;;;18.83;11.17;;;-1.10;99.90;;;;;;4995768;28;20550;-87
2022/03/08 05:22:26;;;;;;;15.67;10.47;;;-1.10;99.90;;;;;;4981450;28;20092;-88
2022/03/08 05:24:52;;;;;;;17.60;10.57;;;-1.20;99.90;;;;;;5009108;28;20042;-87
2022/03/08 05:27:17;;;;;;;15.67;9.70;;;-1.20;99.90;;;;;;4983743;28;20049;-87
2022/03/08 05:29:43;;;;;;;16.93;10.40;;;-1.10;99.90;;;;;;4978922;28;20439;-87
2022/03/08 05:32:08;;;;;;;17.77;11.10;;;-1.10;99.90;;;;;;5000439;28;20069;-87
2022/03/08 05:34:35;;;;;;;19.17;11.10;;;-1.20;99.90;;;;;;4993528;28;20096;-87
2022/03/08 05:37:00;;;;;;;18.23;10.83;;;-1.00;99.90;;;;;;4991252;28;20101;-86
2022/03/08 05:39:26;;;;;;;19.17;11.27;;;-0.90;99.90;;;;;;4985098;28;20041;-87
2022/03/08 05:41:52;;;;;;;15.80;9.97;;;-0.90;99.90;;;;;;4983913;28;20034;-87
2022/03/08 05:44:17;;;;;;;18.07;10.80;;;-0.90;99.90;;;;;;4988209;28;20031;-86
2022/03/08 05:46:44;;;;;;;18.97;11.47;;;-0.90;99.90;;;;;;4996593;28;20057;-86
2022/03/08 05:49:09;;;;;;;18.87;10.83;;;-0.90;99.90;;;;;;4984570;28;21397;-87
2022/03/08 05:51:35;;;;;;;17.30;11.43;;;-0.90;99.90;;;;;;4999964;28;20046;-87
2022/03/08 05:54:01;;;;;;;17.40;11.03;;;-0.90;99.90;;;;;;4996033;28;20084;-85
2022/03/08 05:56:27;;;;;;;23.00;11.10;;;-1.00;99.90;;;;;;5000360;28;20050;-88
2022/03/08 05:58:52;;;;;;;17.63;11.00;;;-1.00;99.90;;;;;;4988224;28;20034;-86
2022/03/08 06:01:18;;;;;;;20.43;12.00;;;-1.00;99.90;;;;;;5000927;28;20048;-87
2022/03/08 06:03:43;;;;;;;19.53;11.40;;;-1.00;99.90;;;;;;5008884;28;20037;-84
2022/03/08 06:06:09;;;;;;;18.73;11.33;;;-1.00;99.90;;;;;;5013364;28;20042;-86
2022/03/08 06:08:35;;;;;;;16.93;11.30;;;-1.00;99.90;;;;;;4999348;28;20092;-87
2022/03/08 06:11:00;;;;;;;19.43;11.37;;;-1.00;99.90;;;;;;5006603;28;20041;-87
2022/03/08 06:13:26;;;;;;;18.60;10.87;;;-1.00;99.90;;;;;;5032411;28;20496;-86
2022/03/08 06:15:51;;;;;;;19.10;11.47;;;-1.10;99.90;;;;;;5002099;28;20081;-86
2022/03/08 06:18:17;;;;;;;19.10;11.33;;;-1.10;99.90;;;;;;5016151;28;20068;-87
2022/03/08 06:20:43;;;;;;;19.63;11.47;;;-1.10;99.90;;;;;;5008171;28;20038;-88
2022/03/08 06:23:08;;;;;;;17.33;10.80;;;-1.10;99.90;;;;;;5004727;28;20034;-87
2022/03/08 06:25:34;;;;;;;19.00;10.80;;;-1.20;99.90;;;;;;4987578;28;20069;-86
2022/03/08 06:28:00;;;;;;;18.73;10.93;;;-1.20;99.90;;;;;;5022449;28;20049;-87
2022/03/08 06:30:26;;;;;;;21.07;11.40;;;-1.20;99.90;;;;;;5003504;28;20419;-85
2022/03/08 06:32:52;;;;;;;21.83;12.23;;;-1.20;99.90;;;;;;4980246;28;20038;-87
2022/03/08 06:35:19;;;;;;;22.27;11.63;;;-1.20;99.90;;;;;;5007699;28;20042;-87
2022/03/08 06:37:45;;;;;;;20.77;11.93;;;-1.20;99.90;;;;;;5001682;28;20041;-86
2022/03/08 06:40:11;;;;;;;19.13;11.33;;;-1.20;99.90;;;;;;4982887;28;20038;-87
2022/03/08 06:42:37;;;;;;;19.50;11.57;;;-1.10;99.90;;;;;;4976501;28;20139;-86
2022/03/08 06:45:07;;;;;;;18.13;11.43;;;-1.10;99.90;;;;;;4993919;28;20092;-86
2022/03/08 06:47:32;;;;;;;19.77;11.57;;;-1.00;99.90;;;;;;5001610;28;20034;-87
2022/03/08 06:49:58;;;;;;;17.67;10.97;;;-1.00;99.90;;;;;;4982673;28;20045;-86
2022/03/08 06:52:24;;;;;;;20.87;12.17;;;-0.90;99.90;;;;;;5004854;28;20507;-86
2022/03/08 06:54:50;;;;;;;19.00;11.57;;;-0.90;99.90;;;;;;4984753;28;20037;-85
2022/03/08 06:57:15;;;;;;;19.10;11.67;;;-0.80;99.90;;;;;;4995743;28;20042;-85
2022/03/08 06:59:41;;;;;;;18.83;11.73;;;-0.70;99.90;;;;;;5000849;28;20121;-84
2022/03/08 07:02:07;;;;;;;19.63;12.03;;;-0.60;99.90;;;;;;4984045;28;20478;-86
2022/03/08 07:04:32;;;;;;;20.90;12.47;;;-0.60;99.90;;;;;;4998976;28;20519;-85
2022/03/08 07:06:58;;;;;;;19.33;12.33;;;-0.50;99.90;;;;;;4979310;28;20076;-85
2022/03/08 07:09:23;;;;;;;22.37;12.80;;;-0.40;99.90;;;;;;4986111;28;20042;-85
2022/03/08 07:11:49;;;;;;;23.10;12.57;;;-0.30;99.90;;;;;;4981046;28;20065;-84
2022/03/08 07:14:17;;;;;;;21.93;12.03;;;-0.20;99.90;;;;;;4999005;28;20033;-86
2022/03/08 07:16:44;;;;;;;20.83;11.47;;;-0.20;99.90;;;;;;4977685;28;20081;-85
2022/03/08 07:19:10;;;;;;;21.40;12.23;;;-0.10;99.90;;;;;;4993721;28;20038;-85
2022/03/08 07:21:35;;;;;;;18.47;11.77;;;0.00;99.90;;;;;;4984286;28;20117;-85
2022/03/08 07:24:01;;;;;;;19.93;11.77;;;0.10;99.90;;;;;;5004719;28;20065;-85
2022/03/08 07:26:26;;;;;;;20.90;12.57;;;0.20;99.90;;;;;;4979118;28;20125;-84
2022/03/08 07:28:52;;;;;;;19.00;11.80;;;0.30;99.90;;;;;;4986850;28;20532;-84
2022/03/08 07:31:17;;;;;;;21.27;12.30;;;0.40;99.90;;;;;;4984440;28;20038;-84
2022/03/08 07:33:43;;;;;;;20.77;12.50;;;0.50;99.90;;;;;;4994139;28;20119;-83
2022/03/08 07:36:09;;;;;;;23.73;12.97;;;0.60;99.90;;;;;;4983138;28;20041;-85
2022/03/08 07:38:34;;;;;;;19.20;11.43;;;0.70;99.90;;;;;;4982055;28;20046;-82
2022/03/08 07:41:00;;;;;;;21.50;12.23;;;0.60;99.90;;;;;;4991256;28;20034;-85
2022/03/08 07:43:26;;;;;;;18.50;12.40;;;0.90;99.90;;;;;;4984193;28;20652;-85
2022/03/08 07:45:51;;;;;;;17.47;11.50;;;1.10;99.90;;;;;;4983828;28;20060;-85
2022/03/08 07:48:18;;;;;;;19.10;12.10;;;1.20;99.90;;;;;;4978220;28;20516;-84
2022/03/08 07:50:43;;;;;;;19.13;11.83;;;1.30;99.90;;;;;;4983603;28;20041;-84
2022/03/08 07:53:09;;;;;;;18.70;11.87;;;1.40;99.90;;;;;;5002977;28;20495;-85
2022/03/08 07:55:35;;;;;;;21.30;12.40;;;1.50;99.90;;;;;;5001330;28;20038;-85
2022/03/08 07:58:02;;;;;;;21.70;12.30;;;1.60;99.90;;;;;;4978035;28;20033;-85
2022/03/08 08:00:29;;;;;;;19.97;11.97;;;1.70;99.90;;;;;;4979541;28;20399;-85
2022/03/08 08:02:55;;;;;;;18.67;11.40;;;1.90;99.90;;;;;;4997920;28;20049;-85
2022/03/08 08:05:21;;;;;;;18.87;11.90;;;2.00;99.90;;;;;;5001076;28;20042;-85
2022/03/08 08:07:46;;;;;;;19.17;11.53;;;2.10;99.90;;;;;;4980206;28;20126;-85
2022/03/08 08:10:12;;;;;;;17.80;11.43;;;2.20;99.90;;;;;;4989181;28;20042;-85
2022/03/08 08:12:39;;;;;;;18.60;12.17;;;2.30;99.90;;;;;;5006461;28;20034;-85
2022/03/08 08:15:06;;;;;;;18.00;10.93;;;2.40;99.90;;;;;;5006427;28;20041;-85
2022/03/08 08:17:32;;;;;;;19.43;12.00;;;2.50;99.90;;;;;;4985897;28;20039;-84
2022/03/08 08:19:58;;;;;;;19.07;11.40;;;2.60;99.90;;;;;;5003848;28;20112;-85
2022/03/08 08:22:23;;;;;;;20.60;11.37;;;2.80;99.90;;;;;;4987735;28;20504;-85
2022/03/08 08:24:49;;;;;;;18.53;10.77;;;2.90;99.90;;;;;;5010629;28;20146;-85
2022/03/08 08:27:14;;;;;;;15.47;10.70;;;3.00;99.90;;;;;;5014315;28;20117;-85
2022/03/08 08:29:40;;;;;;;19.10;11.87;;;3.20;99.90;;;;;;4992319;28;20575;-85
2022/03/08 08:32:06;;;;;;;16.43;10.63;;;3.30;99.90;;;;;;4992908;28;20084;-84
2022/03/08 08:34:32;;;;;;;16.27;10.73;;;3.40;99.90;;;;;;5005765;28;20492;-84
2022/03/08 08:36:57;;;;;;;17.53;10.77;;;3.50;99.90;;;;;;5002370;28;20113;-84
2022/03/08 08:39:23;;;;;;;16.50;10.40;;;3.70;99.90;;;;;;4999126;28;20072;-84
2022/03/08 08:41:48;;;;;;;15.63;10.93;;;3.90;99.90;;;;;;5008872;28;20080;-83
2022/03/08 08:44:14;;;;;;;14.50;9.90;;;4.00;99.90;;;;;;4988863;28;20042;-82
2022/03/08 08:46:40;;;;;;;16.35;10.88;;;4.10;99.90;;;;;;4988836;28;20065;-83
2022/03/08 08:49:05;;;;;;;15.73;10.35;;;4.20;99.90;;;;;;5006954;28;20124;-83
2022/03/08 08:51:32;;;;;;;15.85;9.75;;;4.30;99.90;;;;;;5011248;28;20523;-83
2022/03/08 08:53:57;;;;;;;16.08;10.75;;;4.40;99.90;;;;;;5008642;28;20049;-82
2022/03/08 08:56:23;;;;;;;16.00;9.88;;;4.60;99.90;;;;;;5006284;28;20054;-83
2022/03/08 08:58:49;;;;;;;14.02;10.75;;;4.60;99.90;;;;;;4988971;28;20486;-83
2022/03/08 09:01:14;;;;;;;14.32;9.77;;;4.70;99.90;;;;;;5007978;28;20029;-83
2022/03/08 09:03:40;;;;;;;14.20;10.10;;;4.90;99.90;;;;;;4994852;28;20475;-83
2022/03/08 09:06:06;;;;;;;17.27;10.48;;;5.00;99.90;;;;;;5008284;28;20041;-82
2022/03/08 09:08:32;;;;;;;14.52;9.85;;;5.00;99.90;;;;;;5007241;28;20506;-82
2022/03/08 09:10:57;;;;;;;16.13;10.18;;;5.10;99.90;;;;;;5003806;28;20088;-83
2022/03/08 09:13:24;;;;;;;18.20;9.50;;;5.20;99.90;;;;;;5005907;28;20046;-81
2022/03/08 09:15:50;;;;;;;12.55;9.27;;;5.40;99.90;;;;;;5012128;28;20422;-82
2022/03/08 09:18:16;;;;;;;14.05;9.63;;;5.40;99.90;;;;;;4999870;28;20087;-81
2022/03/08 09:20:42;;;;;;;13.27;9.35;;;5.50;99.90;;;;;;5001076;28;20030;-83
2022/03/08 09:23:08;;;;;;;14.15;10.15;;;5.40;99.90;;;;;;5022804;28;20561;-83
2022/03/08 09:25:35;;;;;;;13.82;9.57;;;5.60;99.90;;;;;;5013906;28;20117;-83
2022/03/08 09:28:05;;;;;;;14.43;9.68;;;5.70;99.90;;;;;;4989059;28;20045;-82
2022/03/08 09:30:31;;;;;;;16.65;9.63;;;5.80;99.90;;;;;;5007898;28;20481;-83
2022/03/08 09:32:58;;;;;;;12.98;9.15;;;5.90;99.90;;;;;;5011023;28;20038;-82
2022/03/08 09:35:25;;;;;;;12.95;9.73;;;6.00;99.90;;;;;;5012550;28;20049;-82
2022/03/08 09:37:51;;;;;;;11.32;8.73;;;6.00;99.90;;;;;;4996050;28;20093;-82
2022/03/08 09:40:16;;;;;;;13.85;8.93;;;6.10;99.90;;;;;;4987784;28;20404;-83
2022/03/08 09:42:42;;;;;;;12.45;8.98;;;6.20;99.90;;;;;;4989864;28;20030;-83
2022/03/08 09:45:08;;;;;;;11.65;8.50;;;6.30;99.90;;;;;;5005171;28;20033;-83
2022/03/08 09:47:34;;;;;;;12.05;8.10;;;6.40;99.90;;;;;;5012061;28;20044;-83
2022/03/08 09:49:59;;;;;;;11.20;7.82;;;6.50;99.90;;;;;;4996377;28;20523;-83
2022/03/08 09:52:25;;;;;;;10.20;7.97;;;6.60;99.90;;;;;;4995889;28;20053;-83
2022/03/08 09:54:51;;;;;;;10.63;7.78;;;6.70;99.90;;;;;;5008710;28;20128;-84
2022/03/08 09:57:22;;;;;;;12.02;7.57;;;6.70;99.90;;;;;;5002115;28;20133;-83
2022/03/08 09:59:47;;;;;;;10.23;7.63;;;6.80;99.90;;;;;;5015412;28;20096;-84
2022/03/08 10:02:14;;;;;;;10.65;7.20;;;6.90;99.90;;;;;;5010427;28;20034;-83
2022/03/08 10:04:40;;;;;;;11.32;8.00;;;7.10;99.90;;;;;;4991316;28;20034;-84
2022/03/08 10:07:11;;;;;;;9.50;7.13;;;7.20;99.90;;;;;;5024714;28;20114;-83
2022/03/08 10:09:36;;;;;;;11.35;7.50;;;7.20;99.90;;;;;;5011312;28;20042;-83
2022/03/08 10:12:14;;;;;;;11.00;6.75;;;7.20;99.90;;;;;;5008228;28;20124;-84
2022/03/08 10:14:40;;;;;;;9.45;7.22;;;7.40;99.90;;;;;;5001690;28;20511;-83
2022/03/08 10:17:06;;;;;;;9.60;7.07;;;7.50;99.90;;;;;;4989282;28;20046;-84
2022/03/08 10:19:46;;;;;;;10.75;7.13;;;7.50;99.90;;;;;;4977420;28;20063;-83
2022/03/08 10:22:34;;;;;;;10.23;6.38;;;7.50;99.90;;;;;;5016140;28;20042;-84
2022/03/08 10:25:20;;;;;;;11.20;6.65;;;7.60;99.90;;;;;;5006971;28;20042;-84
2022/03/08 10:27:54;;;;;;;9.65;6.32;;;7.70;99.90;;;;;;5006552;28;20041;-83
2022/03/08 10:30:25;;;;;;;10.10;7.03;;;7.70;99.90;;;;;;5005332;28;20527;-83
2022/03/08 10:32:56;;;;;;;9.52;6.30;;;7.70;99.90;;;;;;4988236;28;20062;-84
2022/03/08 10:35:28;;;;;;;8.57;6.50;;;7.80;99.90;;;;;;4995126;28;20149;-84
2022/03/08 10:38:03;;;;;;;8.75;6.15;;;7.90;99.90;;;;;;5012190;28;20515;-83
2022/03/08 10:40:35;;;;;;;7.78;5.90;;;8.00;99.90;;;;;;5004165;28;20054;-84
2022/03/08 10:43:14;;;;;;;10.25;6.90;;;8.10;99.90;;;;;;5009871;28;20076;-84
2022/03/08 10:45:45;;;;;;;6.90;5.07;;;8.20;99.90;;;;;;4993316;28;20040;-84
2022/03/08 10:48:17;;;;;;;7.82;5.68;;;8.30;99.90;;;;;;4981996;28;20038;-84
2022/03/08 10:50:44;;;;;;;7.80;5.53;;;8.30;99.90;;;;;;5005976;28;20038;-84
2022/03/08 10:53:11;;;;;;;6.43;5.07;;;8.40;99.90;;;;;;5014335;28;20038;-84
2022/03/08 10:55:47;;;;;;;8.77;5.57;;;8.50;99.90;;;;;;5001107;28;20060;-85
2022/03/08 10:58:14;;;;;;;8.10;5.45;;;8.60;99.90;;;;;;4990003;28;20108;-85
2022/03/08 11:00:51;;;;;;;8.32;5.40;;;8.70;99.90;;;;;;5012611;28;20033;-84
2022/03/08 11:03:20;;;;;;;6.50;4.60;;;8.80;99.90;;;;;;4995598;28;20298;-85
2022/03/08 11:05:52;;;;;;;6.20;5.18;;;8.90;99.90;;;;;;5001616;28;20039;-84
2022/03/08 11:08:18;;;;;;;7.45;5.03;;;9.00;99.90;;;;;;5026997;28;20551;-85
2022/03/08 11:10:45;;;;;;;8.38;4.97;;;9.00;99.90;;;;;;4995080;28;20128;-85
2022/03/08 11:13:12;;;;;;;9.73;5.13;;;9.10;99.90;;;;;;5012564;28;20037;-85
2022/03/08 11:15:43;;;;;;;7.95;5.00;;;9.20;99.90;;;;;;5014116;28;20042;-85
2022/03/08 11:18:11;;;;;;;5.72;4.40;;;9.20;99.90;;;;;;5006707;28;20026;-84
2022/03/08 11:20:39;;;;;;;6.32;4.90;;;9.30;99.90;;;;;;4993513;28;20267;-84
2022/03/08 11:23:05;;;;;;;8.23;5.13;;;9.40;99.90;;;;;;4992458;28;20048;-85
2022/03/08 11:25:35;;;;;;;8.73;5.63;;;9.40;99.90;;;;;;4993877;28;20177;-84
2022/03/08 11:28:02;;;;;;;8.18;5.63;;;9.60;99.90;;;;;;5010411;28;20034;-84
2022/03/08 11:30:31;;;;;;;7.28;6.13;;;9.60;99.90;;;;;;4994737;28;20522;-84
2022/03/08 11:33:17;;;;;;;8.00;6.07;;;9.60;99.90;;;;;;4994886;28;20030;-85
2022/03/08 11:36:00;;;;;;;9.85;5.55;;;9.70;99.90;;;;;;5020298;28;20442;-86
2022/03/08 11:38:26;;;;;;;7.40;6.00;;;9.70;99.90;;;;;;4984209;28;20041;-84
2022/03/08 11:40:54;;;;;;;7.93;5.75;;;9.70;99.90;;;;;;5023063;28;20566;-85
2022/03/08 11:43:34;;;;;;;7.93;5.35;;;9.80;99.90;;;;;;5010571;28;20064;-85
2022/03/08 11:46:15;;;;;;;7.88;5.60;;;9.80;99.90;;;;;;4990130;28;20049;-84
2022/03/08 11:49:01;;;;;;;7.50;6.13;;;9.80;99.90;;;;;;4997799;28;20045;-84
2022/03/08 11:51:28;;;;;;;8.00;5.45;;;9.90;99.90;;;;;;4995629;28;20076;-84
2022/03/08 11:54:06;;;;;;;7.20;5.90;;;9.90;99.90;;;;;;4994056;28;20041;-84
2022/03/08 11:56:49;;;;;;;7.30;5.38;;;10.00;99.90;;;;;;4990828;28;20050;-85
2022/03/08 11:59:15;;;;;;;7.88;5.40;;;10.10;99.90;;;;;;4999111;28;20114;-84
2022/03/08 12:01:41;;;;;;;7.38;5.32;;;10.20;99.90;;;;;;5011430;28;20033;-84
2022/03/08 12:04:16;;;;;;;9.18;6.07;;;10.30;99.90;;;;;;4992842;28;20045;-85
2022/03/08 12:06:47;;;;;;;7.82;5.45;;;10.50;99.90;;;;;;4995875;28;20083;-84
2022/03/08 12:09:16;;;;;;;8.23;4.88;;;10.60;99.90;;;;;;5016499;28;20037;-84
2022/03/08 12:11:50;;;;;;;6.57;4.68;;;10.80;99.90;;;;;;5000218;28;20037;-85
2022/03/08 12:14:18;;;;;;;6.70;4.18;;;10.80;99.90;;;;;;5020193;28;20504;-85
2022/03/08 12:16:51;;;;;;;6.28;4.00;;;10.60;99.40;;;;;;4995888;28;20464;-85
2022/03/08 12:19:33;;;;;;;6.03;4.30;;;10.80;98.70;;;;;;5005733;28;20415;-86
2022/03/08 12:21:58;;;;;;;6.03;4.35;;;10.80;99.10;;;;;;5009203;28;20095;-84
2022/03/08 12:24:25;;;;;;;5.78;4.28;;;10.90;99.50;;;;;;5009408;28;20038;-84
2022/03/08 12:26:50;;;;;;;7.35;4.40;;;11.00;99.30;;;;;;4996202;28;20069;-85
2022/03/08 12:29:23;;;;;;;5.38;3.90;;;11.20;99.30;;;;;;5001468;28;20096;-85
2022/03/08 12:31:57;;;;;;;5.57;3.63;;;11.30;97.80;;;;;;5005031;28;20038;-84
2022/03/08 12:34:40;;;;;;;5.05;4.25;;;11.30;96.90;;;;;;5005436;28;20042;-85
2022/03/08 12:37:18;;;;;;;6.72;4.15;;;11.30;95.80;;;;;;5011635;28;20042;-84
2022/03/08 12:39:58;;;;;;;6.13;3.80;;;11.40;97.10;;;;;;4989269;28;20041;-84